sensor_id;sensor_type;location;lat;lon;timestamp;P1;durP1;ratioP1;P2;durP2;ratioP2
67696;SDS011;54486;51.442;6.778;2023-04-03T00:00:55;10.75;;;5.43;;
67696;SDS011;54486;51.442;6.778;2023-04-03T00:03:24;12.30;;;6.10;;
67696;SDS011;54486;51.442;6.778;2023-04-03T00:05:52;10.55;;;5.70;;
67696;SDS011;54486;51.442;6.778;2023-04-03T00:08:19;11.60;;;5.78;;
67696;SDS011;54486;51.442;6.778;2023-04-03T00:10:46;11.30;;;6.15;;
67696;SDS011;54486;51.442;6.778;2023-04-03T00:13:14;13.15;;;6.40;;
67696;SDS011;54486;51.442;6.778;2023-04-03T00:15:43;12.48;;;6.38;;
67696;SDS011;54486;51.442;6.778;2023-04-03T00:18:13;11.70;;;6.27;;
67696;SDS011;54486;51.442;6.778;2023-04-03T00:20:39;11.73;;;6.05;;
67696;SDS011;54486;51.442;6.778;2023-04-03T00:23:07;11.82;;;5.88;;
67696;SDS011;54486;51.442;6.778;2023-04-03T00:25:34;12.23;;;6.03;;
67696;SDS011;54486;51.442;6.778;2023-04-03T00:28:01;13.32;;;5.93;;
67696;SDS011;54486;51.442;6.778;2023-04-03T00:30:29;14.27;;;6.47;;
67696;SDS011;54486;51.442;6.778;2023-04-03T00:32:56;13.75;;;6.72;;
67696;SDS011;54486;51.442;6.778;2023-04-03T00:35:24;15.13;;;6.40;;
67696;SDS011;54486;51.442;6.778;2023-04-03T00:37:52;12.55;;;6.55;;
67696;SDS011;54486;51.442;6.778;2023-04-03T00:40:21;11.57;;;6.50;;
67696;SDS011;54486;51.442;6.778;2023-04-03T00:42:51;13.32;;;6.82;;
67696;SDS011;54486;51.442;6.778;2023-04-03T00:45:29;12.90;;;6.40;;
67696;SDS011;54486;51.442;6.778;2023-04-03T00:48:04;13.02;;;6.55;;
67696;SDS011;54486;51.442;6.778;2023-04-03T00:50:35;14.38;;;6.90;;
67696;SDS011;54486;51.442;6.778;2023-04-03T00:53:05;14.93;;;7.03;;
67696;SDS011;54486;51.442;6.778;2023-04-03T00:55:35;13.95;;;6.68;;
67696;SDS011;54486;51.442;6.778;2023-04-03T00:58:07;13.05;;;6.90;;
67696;SDS011;54486;51.442;6.778;2023-04-03T01:00:35;12.50;;;6.53;;
67696;SDS011;54486;51.442;6.778;2023-04-03T01:03:07;13.45;;;7.20;;
67696;SDS011;54486;51.442;6.778;2023-04-03T01:05:34;11.57;;;6.32;;
67696;SDS011;54486;51.442;6.778;2023-04-03T01:08:01;11.73;;;6.30;;
67696;SDS011;54486;51.442;6.778;2023-04-03T01:10:29;12.90;;;6.57;;
67696;SDS011;54486;51.442;6.778;2023-04-03T01:12:57;13.02;;;6.35;;
67696;SDS011;54486;51.442;6.778;2023-04-03T01:15:27;11.50;;;6.97;;
67696;SDS011;54486;51.442;6.778;2023-04-03T01:18:04;12.32;;;6.68;;
67696;SDS011;54486;51.442;6.778;2023-04-03T01:26:14;11.75;;;6.28;;
67696;SDS011;54486;51.442;6.778;2023-04-03T01:28:42;12.10;;;6.38;;
67696;SDS011;54486;51.442;6.778;2023-04-03T01:31:24;13.52;;;6.80;;
67696;SDS011;54486;51.442;6.778;2023-04-03T01:33:57;12.70;;;6.45;;
67696;SDS011;54486;51.442;6.778;2023-04-03T01:36:26;12.10;;;6.32;;
67696;SDS011;54486;51.442;6.778;2023-04-03T01:38:55;12.50;;;6.20;;
67696;SDS011;54486;51.442;6.778;2023-04-03T01:41:24;12.00;;;6.18;;
67696;SDS011;54486;51.442;6.778;2023-04-03T01:43:54;12.25;;;6.38;;
67696;SDS011;54486;51.442;6.778;2023-04-03T01:46:22;11.77;;;6.40;;
67696;SDS011;54486;51.442;6.778;2023-04-03T01:48:49;13.23;;;6.65;;
67696;SDS011;54486;51.442;6.778;2023-04-03T01:51:19;13.13;;;6.35;;
67696;SDS011;54486;51.442;6.778;2023-04-03T01:53:49;11.48;;;6.05;;
67696;SDS011;54486;51.442;6.778;2023-04-03T01:56:19;12.55;;;6.35;;
67696;SDS011;54486;51.442;6.778;2023-04-03T01:58:46;13.65;;;6.90;;
67696;SDS011;54486;51.442;6.778;2023-04-03T02:01:14;11.75;;;6.55;;
67696;SDS011;54486;51.442;6.778;2023-04-03T02:03:44;12.23;;;6.88;;
67696;SDS011;54486;51.442;6.778;2023-04-03T02:06:11;12.70;;;6.22;;
67696;SDS011;54486;51.442;6.778;2023-04-03T02:08:38;11.93;;;6.25;;
67696;SDS011;54486;51.442;6.778;2023-04-03T02:11:07;11.88;;;6.25;;
67696;SDS011;54486;51.442;6.778;2023-04-03T02:13:36;12.23;;;6.47;;
67696;SDS011;54486;51.442;6.778;2023-04-03T02:16:06;11.47;;;6.37;;
67696;SDS011;54486;51.442;6.778;2023-04-03T02:18:38;12.43;;;7.13;;
67696;SDS011;54486;51.442;6.778;2023-04-03T02:21:06;11.82;;;6.40;;
67696;SDS011;54486;51.442;6.778;2023-04-03T02:23:33;11.98;;;6.35;;
67696;SDS011;54486;51.442;6.778;2023-04-03T02:26:10;14.20;;;6.90;;
67696;SDS011;54486;51.442;6.778;2023-04-03T02:28:39;13.07;;;7.13;;
67696;SDS011;54486;51.442;6.778;2023-04-03T02:31:09;13.13;;;6.93;;
67696;SDS011;54486;51.442;6.778;2023-04-03T02:33:37;13.00;;;6.63;;
67696;SDS011;54486;51.442;6.778;2023-04-03T02:36:05;14.10;;;6.63;;
67696;SDS011;54486;51.442;6.778;2023-04-03T02:38:34;12.93;;;7.10;;
67696;SDS011;54486;51.442;6.778;2023-04-03T02:41:03;13.52;;;6.35;;
67696;SDS011;54486;51.442;6.778;2023-04-03T02:43:32;12.32;;;6.20;;
67696;SDS011;54486;51.442;6.778;2023-04-03T02:45:59;11.75;;;5.60;;
67696;SDS011;54486;51.442;6.778;2023-04-03T02:48:26;11.73;;;5.90;;
67696;SDS011;54486;51.442;6.778;2023-04-03T02:50:54;13.10;;;6.55;;
67696;SDS011;54486;51.442;6.778;2023-04-03T02:53:22;13.13;;;5.60;;
67696;SDS011;54486;51.442;6.778;2023-04-03T02:55:50;11.60;;;5.90;;
67696;SDS011;54486;51.442;6.778;2023-04-03T02:58:17;11.95;;;5.55;;
67696;SDS011;54486;51.442;6.778;2023-04-03T03:00:44;11.82;;;5.38;;
67696;SDS011;54486;51.442;6.778;2023-04-03T03:03:11;12.18;;;5.63;;
67696;SDS011;54486;51.442;6.778;2023-04-03T03:05:42;12.43;;;5.53;;
67696;SDS011;54486;51.442;6.778;2023-04-03T03:08:09;10.23;;;4.88;;
67696;SDS011;54486;51.442;6.778;2023-04-03T03:10:36;10.55;;;4.85;;
67696;SDS011;54486;51.442;6.778;2023-04-03T03:13:04;11.00;;;5.00;;
67696;SDS011;54486;51.442;6.778;2023-04-03T03:15:32;11.73;;;5.13;;
67696;SDS011;54486;51.442;6.778;2023-04-03T03:17:59;11.45;;;4.75;;
67696;SDS011;54486;51.442;6.778;2023-04-03T03:20:27;10.23;;;4.90;;
67696;SDS011;54486;51.442;6.778;2023-04-03T03:22:54;9.38;;;4.40;;
67696;SDS011;54486;51.442;6.778;2023-04-03T03:25:21;8.57;;;4.03;;
67696;SDS011;54486;51.442;6.778;2023-04-03T03:27:49;10.60;;;4.33;;
67696;SDS011;54486;51.442;6.778;2023-04-03T03:30:16;11.40;;;4.32;;
67696;SDS011;54486;51.442;6.778;2023-04-03T03:32:44;8.73;;;4.00;;
67696;SDS011;54486;51.442;6.778;2023-04-03T03:35:12;10.50;;;4.30;;
67696;SDS011;54486;51.442;6.778;2023-04-03T03:37:39;10.35;;;4.30;;
67696;SDS011;54486;51.442;6.778;2023-04-03T03:40:07;9.93;;;3.70;;
67696;SDS011;54486;51.442;6.778;2023-04-03T03:42:34;8.50;;;3.60;;
67696;SDS011;54486;51.442;6.778;2023-04-03T03:45:01;9.80;;;3.42;;
67696;SDS011;54486;51.442;6.778;2023-04-03T03:47:28;10.90;;;3.57;;
67696;SDS011;54486;51.442;6.778;2023-04-03T03:49:55;9.85;;;3.50;;
67696;SDS011;54486;51.442;6.778;2023-04-03T03:52:22;10.55;;;3.30;;
67696;SDS011;54486;51.442;6.778;2023-04-03T03:54:50;10.43;;;4.03;;
67696;SDS011;54486;51.442;6.778;2023-04-03T03:57:17;8.00;;;2.95;;
67696;SDS011;54486;51.442;6.778;2023-04-03T03:59:44;9.35;;;3.40;;
67696;SDS011;54486;51.442;6.778;2023-04-03T04:02:14;9.00;;;3.10;;
67696;SDS011;54486;51.442;6.778;2023-04-03T04:04:42;10.00;;;3.45;;
67696;SDS011;54486;51.442;6.778;2023-04-03T04:07:08;8.13;;;3.23;;
67696;SDS011;54486;51.442;6.778;2023-04-03T04:09:36;8.70;;;2.90;;
67696;SDS011;54486;51.442;6.778;2023-04-03T04:12:03;8.65;;;2.95;;
67696;SDS011;54486;51.442;6.778;2023-04-03T04:14:30;8.15;;;3.03;;
67696;SDS011;54486;51.442;6.778;2023-04-03T04:16:57;8.10;;;2.72;;
67696;SDS011;54486;51.442;6.778;2023-04-03T04:19:24;9.17;;;2.80;;
67696;SDS011;54486;51.442;6.778;2023-04-03T04:21:51;9.32;;;3.35;;
67696;SDS011;54486;51.442;6.778;2023-04-03T04:24:18;10.20;;;3.40;;
67696;SDS011;54486;51.442;6.778;2023-04-03T04:26:45;10.13;;;3.58;;
67696;SDS011;54486;51.442;6.778;2023-04-03T04:29:13;9.15;;;3.05;;
67696;SDS011;54486;51.442;6.778;2023-04-03T04:31:40;10.40;;;2.97;;
67696;SDS011;54486;51.442;6.778;2023-04-03T04:34:08;8.77;;;3.28;;
67696;SDS011;54486;51.442;6.778;2023-04-03T04:36:38;9.35;;;2.90;;
67696;SDS011;54486;51.442;6.778;2023-04-03T04:39:06;11.30;;;3.10;;
67696;SDS011;54486;51.442;6.778;2023-04-03T04:41:33;8.48;;;2.92;;
67696;SDS011;54486;51.442;6.778;2023-04-03T04:44:01;9.48;;;3.22;;
67696;SDS011;54486;51.442;6.778;2023-04-03T04:46:28;9.77;;;2.65;;
67696;SDS011;54486;51.442;6.778;2023-04-03T04:48:55;8.75;;;3.10;;
67696;SDS011;54486;51.442;6.778;2023-04-03T04:51:22;9.03;;;2.43;;
67696;SDS011;54486;51.442;6.778;2023-04-03T04:53:49;8.52;;;3.22;;
67696;SDS011;54486;51.442;6.778;2023-04-03T04:56:16;9.13;;;3.08;;
67696;SDS011;54486;51.442;6.778;2023-04-03T04:58:46;8.18;;;2.70;;
67696;SDS011;54486;51.442;6.778;2023-04-03T05:01:13;10.20;;;2.87;;
67696;SDS011;54486;51.442;6.778;2023-04-03T05:03:43;9.48;;;3.17;;
67696;SDS011;54486;51.442;6.778;2023-04-03T05:06:10;8.98;;;3.40;;
67696;SDS011;54486;51.442;6.778;2023-04-03T05:08:37;10.63;;;2.95;;
67696;SDS011;54486;51.442;6.778;2023-04-03T05:11:04;8.75;;;2.80;;
67696;SDS011;54486;51.442;6.778;2023-04-03T05:13:31;8.50;;;2.92;;
67696;SDS011;54486;51.442;6.778;2023-04-03T05:15:58;9.55;;;3.33;;
67696;SDS011;54486;51.442;6.778;2023-04-03T05:18:28;8.25;;;3.05;;
67696;SDS011;54486;51.442;6.778;2023-04-03T05:20:56;9.37;;;2.87;;
67696;SDS011;54486;51.442;6.778;2023-04-03T05:23:26;9.98;;;2.95;;
67696;SDS011;54486;51.442;6.778;2023-04-03T05:25:53;9.23;;;3.08;;
67696;SDS011;54486;51.442;6.778;2023-04-03T05:28:20;9.25;;;2.80;;
67696;SDS011;54486;51.442;6.778;2023-04-03T05:30:53;10.13;;;3.13;;
67696;SDS011;54486;51.442;6.778;2023-04-03T05:33:22;9.60;;;3.33;;
67696;SDS011;54486;51.442;6.778;2023-04-03T05:35:50;9.87;;;2.97;;
67696;SDS011;54486;51.442;6.778;2023-04-03T05:38:17;9.85;;;3.40;;
67696;SDS011;54486;51.442;6.778;2023-04-03T05:40:44;10.95;;;3.35;;
67696;SDS011;54486;51.442;6.778;2023-04-03T05:43:12;11.45;;;3.40;;
67696;SDS011;54486;51.442;6.778;2023-04-03T05:45:39;7.20;;;2.67;;
67696;SDS011;54486;51.442;6.778;2023-04-03T05:48:06;8.57;;;3.08;;
67696;SDS011;54486;51.442;6.778;2023-04-03T05:50:33;10.80;;;3.13;;
67696;SDS011;54486;51.442;6.778;2023-04-03T05:53:01;9.45;;;3.45;;
67696;SDS011;54486;51.442;6.778;2023-04-03T05:55:31;8.30;;;3.15;;
67696;SDS011;54486;51.442;6.778;2023-04-03T05:57:59;8.50;;;3.00;;
67696;SDS011;54486;51.442;6.778;2023-04-03T06:00:26;9.55;;;3.20;;
67696;SDS011;54486;51.442;6.778;2023-04-03T06:02:54;10.55;;;3.15;;
67696;SDS011;54486;51.442;6.778;2023-04-03T06:05:21;7.73;;;2.87;;
67696;SDS011;54486;51.442;6.778;2023-04-03T06:07:49;10.43;;;3.28;;
67696;SDS011;54486;51.442;6.778;2023-04-03T06:10:16;10.10;;;3.20;;
67696;SDS011;54486;51.442;6.778;2023-04-03T06:12:44;10.18;;;3.35;;
67696;SDS011;54486;51.442;6.778;2023-04-03T06:15:11;11.85;;;3.53;;
67696;SDS011;54486;51.442;6.778;2023-04-03T06:17:38;9.75;;;3.38;;
67696;SDS011;54486;51.442;6.778;2023-04-03T06:20:05;13.15;;;3.65;;
67696;SDS011;54486;51.442;6.778;2023-04-03T06:22:32;9.23;;;3.50;;
67696;SDS011;54486;51.442;6.778;2023-04-03T06:25:00;10.50;;;3.17;;
67696;SDS011;54486;51.442;6.778;2023-04-03T06:27:27;9.45;;;3.10;;
67696;SDS011;54486;51.442;6.778;2023-04-03T06:29:54;9.33;;;2.90;;
67696;SDS011;54486;51.442;6.778;2023-04-03T06:32:21;8.85;;;3.03;;
67696;SDS011;54486;51.442;6.778;2023-04-03T06:34:48;11.43;;;3.30;;
67696;SDS011;54486;51.442;6.778;2023-04-03T06:37:20;9.55;;;3.28;;
67696;SDS011;54486;51.442;6.778;2023-04-03T06:39:49;9.50;;;3.17;;
67696;SDS011;54486;51.442;6.778;2023-04-03T06:42:17;9.23;;;3.45;;
67696;SDS011;54486;51.442;6.778;2023-04-03T06:44:44;8.05;;;3.35;;
67696;SDS011;54486;51.442;6.778;2023-04-03T06:47:12;10.18;;;3.08;;
67696;SDS011;54486;51.442;6.778;2023-04-03T06:49:41;10.13;;;3.57;;
67696;SDS011;54486;51.442;6.778;2023-04-03T06:52:09;10.07;;;3.40;;
67696;SDS011;54486;51.442;6.778;2023-04-03T06:54:39;8.35;;;2.80;;
67696;SDS011;54486;51.442;6.778;2023-04-03T06:57:07;10.93;;;3.40;;
67696;SDS011;54486;51.442;6.778;2023-04-03T06:59:34;10.77;;;3.13;;
67696;SDS011;54486;51.442;6.778;2023-04-03T07:02:02;9.02;;;3.13;;
67696;SDS011;54486;51.442;6.778;2023-04-03T07:04:30;7.72;;;2.75;;
67696;SDS011;54486;51.442;6.778;2023-04-03T07:06:58;8.33;;;2.93;;
67696;SDS011;54486;51.442;6.778;2023-04-03T07:09:24;10.38;;;3.00;;
67696;SDS011;54486;51.442;6.778;2023-04-03T07:11:51;8.15;;;3.13;;
67696;SDS011;54486;51.442;6.778;2023-04-03T07:14:18;8.23;;;2.80;;
67696;SDS011;54486;51.442;6.778;2023-04-03T07:16:45;9.50;;;2.60;;
67696;SDS011;54486;51.442;6.778;2023-04-03T07:19:12;8.10;;;2.88;;
67696;SDS011;54486;51.442;6.778;2023-04-03T07:21:39;8.40;;;2.80;;
67696;SDS011;54486;51.442;6.778;2023-04-03T07:24:08;8.32;;;2.65;;
67696;SDS011;54486;51.442;6.778;2023-04-03T07:26:40;8.50;;;2.77;;
67696;SDS011;54486;51.442;6.778;2023-04-03T07:29:07;7.90;;;2.70;;
67696;SDS011;54486;51.442;6.778;2023-04-03T07:31:35;8.73;;;2.83;;
67696;SDS011;54486;51.442;6.778;2023-04-03T07:34:02;11.77;;;3.23;;
67696;SDS011;54486;51.442;6.778;2023-04-03T07:36:31;9.50;;;3.05;;
67696;SDS011;54486;51.442;6.778;2023-04-03T07:39:00;7.55;;;2.58;;
67696;SDS011;54486;51.442;6.778;2023-04-03T07:41:29;9.63;;;2.90;;
67696;SDS011;54486;51.442;6.778;2023-04-03T07:43:56;8.18;;;2.92;;
67696;SDS011;54486;51.442;6.778;2023-04-03T07:46:23;8.30;;;2.83;;
67696;SDS011;54486;51.442;6.778;2023-04-03T07:48:51;9.07;;;3.00;;
67696;SDS011;54486;51.442;6.778;2023-04-03T07:51:18;7.03;;;2.47;;
67696;SDS011;54486;51.442;6.778;2023-04-03T07:53:46;10.82;;;2.70;;
67696;SDS011;54486;51.442;6.778;2023-04-03T07:56:13;8.65;;;2.42;;
67696;SDS011;54486;51.442;6.778;2023-04-03T07:58:40;7.63;;;2.50;;
67696;SDS011;54486;51.442;6.778;2023-04-03T08:01:08;8.30;;;2.70;;
67696;SDS011;54486;51.442;6.778;2023-04-03T08:03:35;9.35;;;2.40;;
67696;SDS011;54486;51.442;6.778;2023-04-03T08:06:04;7.78;;;2.70;;
67696;SDS011;54486;51.442;6.778;2023-04-03T08:08:41;8.32;;;2.40;;
67696;SDS011;54486;51.442;6.778;2023-04-03T08:11:07;9.18;;;2.70;;
67696;SDS011;54486;51.442;6.778;2023-04-03T08:13:36;8.57;;;2.90;;
67696;SDS011;54486;51.442;6.778;2023-04-03T08:16:07;8.50;;;2.70;;
67696;SDS011;54486;51.442;6.778;2023-04-03T08:18:39;10.68;;;2.70;;
67696;SDS011;54486;51.442;6.778;2023-04-03T08:21:08;8.20;;;2.22;;
67696;SDS011;54486;51.442;6.778;2023-04-03T08:23:38;8.93;;;2.85;;
67696;SDS011;54486;51.442;6.778;2023-04-03T08:26:15;8.50;;;2.60;;
67696;SDS011;54486;51.442;6.778;2023-04-03T08:28:44;8.38;;;2.25;;
67696;SDS011;54486;51.442;6.778;2023-04-03T08:31:12;8.43;;;2.38;;
67696;SDS011;54486;51.442;6.778;2023-04-03T08:33:46;8.95;;;2.30;;
67696;SDS011;54486;51.442;6.778;2023-04-03T08:36:18;7.28;;;2.40;;
67696;SDS011;54486;51.442;6.778;2023-04-03T08:38:50;6.53;;;2.10;;
67696;SDS011;54486;51.442;6.778;2023-04-03T08:44:07;7.45;;;2.35;;
67696;SDS011;54486;51.442;6.778;2023-04-03T08:49:40;9.63;;;2.63;;
67696;SDS011;54486;51.442;6.778;2023-04-03T08:58:04;7.75;;;2.40;;
67696;SDS011;54486;51.442;6.778;2023-04-03T09:00:37;7.03;;;2.03;;
67696;SDS011;54486;51.442;6.778;2023-04-03T09:03:28;7.47;;;2.20;;
67696;SDS011;54486;51.442;6.778;2023-04-03T09:06:03;6.25;;;1.50;;
67696;SDS011;54486;51.442;6.778;2023-04-03T09:08:47;6.05;;;1.80;;
67696;SDS011;54486;51.442;6.778;2023-04-03T09:16:54;6.55;;;1.80;;
67696;SDS011;54486;51.442;6.778;2023-04-03T09:20:07;7.60;;;2.03;;
67696;SDS011;54486;51.442;6.778;2023-04-03T09:22:27;7.50;;;1.70;;
67696;SDS011;54486;51.442;6.778;2023-04-03T09:25:02;7.05;;;2.05;;
67696;SDS011;54486;51.442;6.778;2023-04-03T09:27:37;5.65;;;1.55;;
67696;SDS011;54486;51.442;6.778;2023-04-03T09:30:04;5.63;;;1.60;;
67696;SDS011;54486;51.442;6.778;2023-04-03T09:32:34;6.22;;;1.83;;
67696;SDS011;54486;51.442;6.778;2023-04-03T09:38:14;5.53;;;1.48;;
67696;SDS011;54486;51.442;6.778;2023-04-03T09:40:44;6.50;;;1.80;;
67696;SDS011;54486;51.442;6.778;2023-04-03T09:45:44;5.25;;;1.42;;
67696;SDS011;54486;51.442;6.778;2023-04-03T09:53:35;5.65;;;1.50;;
67696;SDS011;54486;51.442;6.778;2023-04-03T09:58:44;5.85;;;1.70;;
67696;SDS011;54486;51.442;6.778;2023-04-03T10:01:21;6.90;;;1.58;;
67696;SDS011;54486;51.442;6.778;2023-04-03T10:06:34;5.30;;;1.40;;
67696;SDS011;54486;51.442;6.778;2023-04-03T10:09:06;4.63;;;1.30;;
67696;SDS011;54486;51.442;6.778;2023-04-03T10:14:35;5.90;;;1.60;;
67696;SDS011;54486;51.442;6.778;2023-04-03T10:19:43;5.70;;;1.87;;
67696;SDS011;54486;51.442;6.778;2023-04-03T10:22:18;5.77;;;1.30;;
67696;SDS011;54486;51.442;6.778;2023-04-03T10:24:56;5.17;;;1.40;;
67696;SDS011;54486;51.442;6.778;2023-04-03T10:35:50;7.43;;;1.60;;
67696;SDS011;54486;51.442;6.778;2023-04-03T10:44:47;5.80;;;1.52;;
67696;SDS011;54486;51.442;6.778;2023-04-03T10:47:37;6.60;;;1.48;;
67696;SDS011;54486;51.442;6.778;2023-04-03T10:58:54;6.57;;;1.60;;
67696;SDS011;54486;51.442;6.778;2023-04-03T11:01:40;6.37;;;1.87;;
67696;SDS011;54486;51.442;6.778;2023-04-03T11:04:10;6.90;;;1.60;;
67696;SDS011;54486;51.442;6.778;2023-04-03T11:06:40;5.85;;;1.60;;
67696;SDS011;54486;51.442;6.778;2023-04-03T11:12:17;5.88;;;1.70;;
67696;SDS011;54486;51.442;6.778;2023-04-03T11:14:52;6.18;;;1.70;;
67696;SDS011;54486;51.442;6.778;2023-04-03T11:17:33;7.70;;;1.95;;
67696;SDS011;54486;51.442;6.778;2023-04-03T11:23:21;7.38;;;1.98;;
67696;SDS011;54486;51.442;6.778;2023-04-03T11:26:10;6.57;;;1.60;;
67696;SDS011;54486;51.442;6.778;2023-04-03T11:28:38;6.80;;;1.67;;
67696;SDS011;54486;51.442;6.778;2023-04-03T11:31:25;6.90;;;1.70;;
67696;SDS011;54486;51.442;6.778;2023-04-03T11:37:04;5.50;;;1.30;;
67696;SDS011;54486;51.442;6.778;2023-04-03T11:39:40;6.95;;;1.50;;
67696;SDS011;54486;51.442;6.778;2023-04-03T11:45:50;6.18;;;1.83;;
67696;SDS011;54486;51.442;6.778;2023-04-03T11:50:47;6.60;;;1.80;;
67696;SDS011;54486;51.442;6.778;2023-04-03T11:55:43;6.65;;;1.88;;
67696;SDS011;54486;51.442;6.778;2023-04-03T11:58:12;5.85;;;1.77;;
67696;SDS011;54486;51.442;6.778;2023-04-03T12:13:35;6.57;;;1.70;;
67696;SDS011;54486;51.442;6.778;2023-04-03T12:19:49;7.22;;;1.50;;
67696;SDS011;54486;51.442;6.778;2023-04-03T12:22:10;7.15;;;1.65;;
67696;SDS011;54486;51.442;6.778;2023-04-03T12:24:40;5.13;;;1.60;;
67696;SDS011;54486;51.442;6.778;2023-04-03T12:27:18;7.57;;;1.80;;
67696;SDS011;54486;51.442;6.778;2023-04-03T12:30:25;5.90;;;1.55;;
67696;SDS011;54486;51.442;6.778;2023-04-03T12:33:04;6.50;;;1.85;;
67696;SDS011;54486;51.442;6.778;2023-04-03T12:35:51;5.05;;;1.52;;
67696;SDS011;54486;51.442;6.778;2023-04-03T12:46:50;6.05;;;1.85;;
67696;SDS011;54486;51.442;6.778;2023-04-03T12:54:51;6.40;;;1.63;;
67696;SDS011;54486;51.442;6.778;2023-04-03T12:57:21;5.30;;;1.48;;
67696;SDS011;54486;51.442;6.778;2023-04-03T12:59:52;5.75;;;1.70;;
67696;SDS011;54486;51.442;6.778;2023-04-03T13:02:27;5.97;;;1.83;;
67696;SDS011;54486;51.442;6.778;2023-04-03T13:04:58;7.30;;;1.90;;
67696;SDS011;54486;51.442;6.778;2023-04-03T13:07:32;7.03;;;1.67;;
67696;SDS011;54486;51.442;6.778;2023-04-03T13:12:35;6.85;;;1.92;;
67696;SDS011;54486;51.442;6.778;2023-04-03T13:15:15;6.80;;;1.87;;
67696;SDS011;54486;51.442;6.778;2023-04-03T13:17:53;6.07;;;1.63;;
67696;SDS011;54486;51.442;6.778;2023-04-03T13:20:24;6.27;;;1.57;;
67696;SDS011;54486;51.442;6.778;2023-04-03T13:23:00;5.78;;;1.73;;
67696;SDS011;54486;51.442;6.778;2023-04-03T13:25:33;5.47;;;1.77;;
67696;SDS011;54486;51.442;6.778;2023-04-03T13:28:03;5.60;;;1.63;;
67696;SDS011;54486;51.442;6.778;2023-04-03T13:30:40;5.95;;;1.65;;
67696;SDS011;54486;51.442;6.778;2023-04-03T13:33:26;5.73;;;1.37;;
67696;SDS011;54486;51.442;6.778;2023-04-03T13:35:58;6.83;;;1.70;;
67696;SDS011;54486;51.442;6.778;2023-04-03T13:38:30;6.65;;;1.50;;
67696;SDS011;54486;51.442;6.778;2023-04-03T13:41:02;5.50;;;1.50;;
67696;SDS011;54486;51.442;6.778;2023-04-03T13:43:36;5.40;;;1.73;;
67696;SDS011;54486;51.442;6.778;2023-04-03T13:48:44;5.45;;;1.23;;
67696;SDS011;54486;51.442;6.778;2023-04-03T13:53:59;5.28;;;1.38;;
67696;SDS011;54486;51.442;6.778;2023-04-03T14:04:14;5.80;;;1.50;;
67696;SDS011;54486;51.442;6.778;2023-04-03T14:06:46;7.55;;;1.58;;
67696;SDS011;54486;51.442;6.778;2023-04-03T14:09:15;5.80;;;1.48;;
67696;SDS011;54486;51.442;6.778;2023-04-03T14:11:43;6.50;;;1.47;;
67696;SDS011;54486;51.442;6.778;2023-04-03T14:14:17;5.50;;;1.30;;
67696;SDS011;54486;51.442;6.778;2023-04-03T14:16:51;6.70;;;1.40;;
67696;SDS011;54486;51.442;6.778;2023-04-03T14:19:27;6.25;;;1.50;;
67696;SDS011;54486;51.442;6.778;2023-04-03T14:21:56;5.07;;;1.33;;
67696;SDS011;54486;51.442;6.778;2023-04-03T14:24:25;6.28;;;1.45;;
67696;SDS011;54486;51.442;6.778;2023-04-03T14:26:54;6.03;;;1.38;;
67696;SDS011;54486;51.442;6.778;2023-04-03T14:29:22;6.55;;;1.60;;
67696;SDS011;54486;51.442;6.778;2023-04-03T14:31:50;6.67;;;1.47;;
67696;SDS011;54486;51.442;6.778;2023-04-03T14:34:37;5.53;;;1.27;;
67696;SDS011;54486;51.442;6.778;2023-04-03T14:37:05;6.47;;;1.38;;
67696;SDS011;54486;51.442;6.778;2023-04-03T14:39:37;5.43;;;1.55;;
67696;SDS011;54486;51.442;6.778;2023-04-03T14:42:04;6.13;;;1.30;;
67696;SDS011;54486;51.442;6.778;2023-04-03T14:44:33;6.97;;;1.30;;
67696;SDS011;54486;51.442;6.778;2023-04-03T14:47:00;6.50;;;1.40;;
67696;SDS011;54486;51.442;6.778;2023-04-03T14:49:28;6.00;;;1.58;;
67696;SDS011;54486;51.442;6.778;2023-04-03T14:51:57;6.55;;;1.45;;
67696;SDS011;54486;51.442;6.778;2023-04-03T14:54:25;5.60;;;1.40;;
67696;SDS011;54486;51.442;6.778;2023-04-03T14:56:54;6.53;;;1.38;;
67696;SDS011;54486;51.442;6.778;2023-04-03T14:59:23;6.10;;;1.43;;
67696;SDS011;54486;51.442;6.778;2023-04-03T15:01:58;6.10;;;1.35;;
67696;SDS011;54486;51.442;6.778;2023-04-03T15:04:26;6.35;;;1.40;;
67696;SDS011;54486;51.442;6.778;2023-04-03T15:06:54;6.47;;;1.40;;
67696;SDS011;54486;51.442;6.778;2023-04-03T15:09:22;5.32;;;1.20;;
67696;SDS011;54486;51.442;6.778;2023-04-03T15:11:51;5.38;;;1.27;;
67696;SDS011;54486;51.442;6.778;2023-04-03T15:14:20;6.43;;;1.40;;
67696;SDS011;54486;51.442;6.778;2023-04-03T15:16:54;5.85;;;1.42;;
67696;SDS011;54486;51.442;6.778;2023-04-03T15:19:21;5.70;;;1.45;;
67696;SDS011;54486;51.442;6.778;2023-04-03T15:21:48;6.68;;;1.60;;
67696;SDS011;54486;51.442;6.778;2023-04-03T15:24:15;6.13;;;1.40;;
67696;SDS011;54486;51.442;6.778;2023-04-03T15:26:44;5.70;;;1.52;;
67696;SDS011;54486;51.442;6.778;2023-04-03T15:29:11;5.68;;;1.25;;
67696;SDS011;54486;51.442;6.778;2023-04-03T15:31:38;7.68;;;1.70;;
67696;SDS011;54486;51.442;6.778;2023-04-03T15:34:06;6.53;;;1.73;;
67696;SDS011;54486;51.442;6.778;2023-04-03T15:36:33;7.32;;;1.70;;
67696;SDS011;54486;51.442;6.778;2023-04-03T15:39:00;6.40;;;1.63;;
67696;SDS011;54486;51.442;6.778;2023-04-03T15:41:28;6.03;;;1.50;;
67696;SDS011;54486;51.442;6.778;2023-04-03T15:43:55;6.22;;;1.50;;
67696;SDS011;54486;51.442;6.778;2023-04-03T15:46:21;7.10;;;1.63;;
67696;SDS011;54486;51.442;6.778;2023-04-03T15:48:48;6.18;;;1.80;;
67696;SDS011;54486;51.442;6.778;2023-04-03T15:54:12;5.80;;;1.60;;
67696;SDS011;54486;51.442;6.778;2023-04-03T15:56:39;5.63;;;1.50;;
67696;SDS011;54486;51.442;6.778;2023-04-03T15:59:06;5.68;;;1.58;;
67696;SDS011;54486;51.442;6.778;2023-04-03T16:01:33;6.32;;;1.67;;
67696;SDS011;54486;51.442;6.778;2023-04-03T16:04:01;6.05;;;1.63;;
67696;SDS011;54486;51.442;6.778;2023-04-03T16:06:28;5.85;;;1.50;;
67696;SDS011;54486;51.442;6.778;2023-04-03T16:09:03;6.65;;;1.77;;
67696;SDS011;54486;51.442;6.778;2023-04-03T16:11:31;5.37;;;1.40;;
67696;SDS011;54486;51.442;6.778;2023-04-03T16:13:58;6.03;;;1.55;;
67696;SDS011;54486;51.442;6.778;2023-04-03T16:16:25;7.13;;;1.67;;
67696;SDS011;54486;51.442;6.778;2023-04-03T16:18:54;7.20;;;1.90;;
67696;SDS011;54486;51.442;6.778;2023-04-03T16:21:25;7.38;;;1.95;;
67696;SDS011;54486;51.442;6.778;2023-04-03T16:24:04;7.03;;;1.80;;
67696;SDS011;54486;51.442;6.778;2023-04-03T16:26:32;7.00;;;1.88;;
67696;SDS011;54486;51.442;6.778;2023-04-03T16:29:00;7.55;;;1.50;;
67696;SDS011;54486;51.442;6.778;2023-04-03T16:31:29;7.28;;;2.20;;
67696;SDS011;54486;51.442;6.778;2023-04-03T16:34:00;7.60;;;1.90;;
67696;SDS011;54486;51.442;6.778;2023-04-03T16:36:26;6.53;;;1.70;;
67696;SDS011;54486;51.442;6.778;2023-04-03T16:38:53;6.78;;;1.70;;
67696;SDS011;54486;51.442;6.778;2023-04-03T16:41:22;7.37;;;1.80;;
67696;SDS011;54486;51.442;6.778;2023-04-03T16:43:50;6.18;;;1.75;;
67696;SDS011;54486;51.442;6.778;2023-04-03T16:46:17;6.47;;;1.65;;
67696;SDS011;54486;51.442;6.778;2023-04-03T16:48:44;6.35;;;1.70;;
67696;SDS011;54486;51.442;6.778;2023-04-03T16:51:12;6.03;;;1.70;;
67696;SDS011;54486;51.442;6.778;2023-04-03T16:53:40;6.03;;;1.85;;
67696;SDS011;54486;51.442;6.778;2023-04-03T16:56:07;7.93;;;1.80;;
67696;SDS011;54486;51.442;6.778;2023-04-03T16:58:34;6.13;;;1.73;;
67696;SDS011;54486;51.442;6.778;2023-04-03T17:01:14;6.03;;;1.80;;
67696;SDS011;54486;51.442;6.778;2023-04-03T17:03:44;7.05;;;2.13;;
67696;SDS011;54486;51.442;6.778;2023-04-03T17:06:13;7.80;;;2.00;;
67696;SDS011;54486;51.442;6.778;2023-04-03T17:08:44;6.72;;;1.60;;
67696;SDS011;54486;51.442;6.778;2023-04-03T17:11:13;6.72;;;2.05;;
67696;SDS011;54486;51.442;6.778;2023-04-03T17:13:41;8.50;;;1.83;;